ADDS METAR Data INFO
IDs: Format: Raw Decoded Include TAF

Data at: 0601 UTC 25 Jun 2018

KILE 250556Z AUTO 16014G19KT 10SM CLR 26/22 A2990 RMK AO2 SLP124 T02610222 10339 20261 403610256 50004
KILE 250456Z AUTO 15013KT 10SM CLR 27/23 A2991 RMK AO2 SLP128 T02720228
KILE 250356Z AUTO 13010KT 10SM CLR 28/22 A2992 RMK AO2 SLP131 T02830222
KILE 250156Z AUTO 15015G23KT 10SM CLR 31/22 A2985 RMK AO2 SLP107 T03060222
KILE 250056Z AUTO 15020G24KT 10SM CLR 32/22 A2982 RMK AO2 PK WND 15028/0035 SLP098 T03220222
KILE 242356Z AUTO 16022G33KT 10SM CLR 34/22 A2981 RMK AO2 PK WND 14033/2354 SLP092 T03390217 10361 20339 56008
KILE 242256Z AUTO 15018G28KT 10SM CLR 36/21 A2981 RMK AO2 PK WND 15028/2251 SLP091 T03560211
KILE 242156Z AUTO 17016G27KT 10SM CLR 36/20 A2982 RMK AO2 PK WND 18029/2119 SLP095 T03610200
KILE 242056Z AUTO 17018G24KT 10SM CLR 36/21 A2983 RMK AO2 PK WND 15028/2040 SLP099 T03610211 58014
KILE 241956Z AUTO 17016G22KT 10SM CLR 36/22 A2985 RMK AO2 SLP106 T03560217
KILE 241856Z AUTO 16012G21KT 10SM CLR 35/21 A2986 RMK AO2 SLP109 T03500211
KILE 241756Z AUTO 15016KT 7SM FEW050 34/21 A2987 RMK AO2 SLP114 T03390211 10344 20256 51003
KILE 241656Z AUTO 19013G21KT 10SM FEW044 33/21 A2987 RMK AO2 SLP114 T03280206
KILE 241556Z AUTO 19012G22KT 10SM FEW037 31/21 A2988 RMK AO2 SLP116 T03110211
KILE 241456Z AUTO 19016G23KT 10SM CLR 30/22 A2986 RMK AO2 PK WND 19028/1401 SLP111 T03000217 51016
KILE 241356Z AUTO 20022G28KT 10SM 28/22 A2985 RMK AO2 PK WND 18028/1353 SLP109 T02830222
KILE 241256Z AUTO 19018G24KT 10SM 27/22 A2983 RMK AO2 SLP101 T02670222 $
KILE 241156Z AUTO 18017G24KT 10SM OVC020 26/22 A2982 RMK AO2 SLP095 T02560222 10278 20256 55001
KILE 241056Z AUTO 18016G21KT 10SM BKN016 26/23 A2979 RMK AO2 PK WND 16033/1035 SLP086 T02560228
KILE 240956Z AUTO 17016G24KT 10SM CLR 26/23 A2979 RMK AO2 PK WND 15027/0945 SLP084 T02560228
KILE 240856Z AUTO 16014G21KT 10SM CLR 26/22 A2982 RMK AO2 SLP095 T02610222 56029
KILE 240656Z AUTO 17008KT 10SM FEW100 27/23 A2989 RMK AO2 SLP121 T02720233
KILE 240617Z AUTO 16011KT 10SM BKN025 BKN031 OVC041 27/23 A2989 RMK AO2
KILE 240556Z AUTO 17009G16KT 10SM SCT027 OVC039 28/23 A2991 RMK AO2 SLP124 T02780233 10344 20278 403670256 53043
KILE 240456Z AUTO 16012G18KT 10SM BKN029 28/23 A2985 RMK AO2 SLP107 T02780233
KILE 240431Z AUTO 16013KT 10SM BKN029 28/23 A2984 RMK AO2
KILE 240356Z AUTO 17012G20KT 10SM CLR 28/22 A2982 RMK AO2 SLP098 T02830222
KILE 240256Z AUTO 16016G27KT 10SM CLR 29/22 A2977 RMK AO2 PK WND 16027/0248 SLP082 T02940222 53013
KILE 240156Z AUTO 15018G26KT 10SM CLR 31/22 A2975 RMK AO2 PK WND 15026/0150 SLP073 T03060222
KILE 240056Z AUTO 15016G22KT 10SM CLR 33/22 A2974 RMK AO2 PK WND 16027/0015 SLP071 T03280217
KILE 232356Z AUTO 15018G27KT 10SM CLR 34/22 A2974 RMK AO2 PK WND 16027/2353 SLP068 T03440222 10367 20339 56013
KILE 232256Z AUTO 17016G25KT 10SM CLR 36/22 A2974 RMK AO2 PK WND 15026/2241 SLP067 T03560217
KILE 232156Z AUTO 17012G22KT 10SM FEW060 36/22 A2976 RMK AO2 SLP074 T03610217
KILE 232056Z AUTO 17015G22KT 10SM CLR 36/21 A2977 RMK AO2 SLP079 T03610211 56023
KILE 231956Z AUTO 15016G24KT 10SM CLR 36/21 A2979 RMK AO2 SLP086 T03560211
KILE 231856Z AUTO 17012G22KT 10SM CLR 35/21 A2981 RMK AO2 SLP093 T03500211